Time;durP1;ratioP1;P1;durP2;ratioP2;P2;SDS_P1;SDS_P2;PMS_P1;PMS_P2;Temp;Humidity;BMP_temperature;BMP_pressure;BME280_temperature;BME280_humidity;BME280_pressure;Samples;Min_cycle;Max_cycle;Signal;HPM_P1;HPM_P2
2022/02/25 00:01:02;;;;;;;56.45;27.48;;;4.50;87.70;;;;;;5093990;28;20043;-74
2022/02/25 00:03:29;;;;;;;46.15;25.48;;;4.50;91.30;;;;;;5094186;28;20078;-76
2022/02/25 00:05:56;;;;;;;41.90;26.15;;;4.50;92.10;;;;;;5074306;28;20094;-77
2022/02/25 00:08:23;;;;;;;51.22;26.83;;;4.70;92.80;;;;;;5073875;28;20520;-77
2022/02/25 00:10:51;;;;;;;54.95;26.70;;;4.70;93.00;;;;;;5073579;28;20040;-75
2022/02/25 00:13:18;;;;;;;50.03;28.17;;;4.70;93.00;;;;;;5073590;28;20044;-75
2022/02/25 00:15:45;;;;;;;54.70;25.85;;;4.60;93.30;;;;;;5073904;28;20040;-76
2022/02/25 00:18:13;;;;;;;50.15;26.17;;;4.60;93.40;;;;;;5073163;28;20491;-76
2022/02/25 00:20:40;;;;;;;43.08;25.00;;;4.40;93.70;;;;;;5074267;28;20040;-75
2022/02/25 00:23:08;;;;;;;41.28;23.92;;;4.50;94.50;;;;;;5080360;28;20560;-74
2022/02/25 00:25:35;;;;;;;35.85;21.52;;;4.60;93.00;;;;;;5081337;28;20044;-77
2022/02/25 00:28:03;;;;;;;43.50;23.90;;;4.60;93.00;;;;;;5082953;28;20044;-76
2022/02/25 00:30:30;;;;;;;38.40;21.08;;;4.50;92.90;;;;;;5083109;28;20033;-76
2022/02/25 00:32:57;;;;;;;44.60;21.27;;;4.50;92.50;;;;;;5086846;28;20234;-71
2022/02/25 00:35:24;;;;;;;51.25;24.38;;;4.20;93.30;;;;;;5086470;28;20135;-72
2022/02/25 00:37:52;;;;;;;48.75;25.90;;;4.20;93.40;;;;;;5087848;28;20044;-73
2022/02/25 00:40:21;;;;;;;51.63;25.27;;;4.30;93.40;;;;;;5087306;28;20041;-72
2022/02/25 00:42:50;;;;;;;;;;;4.40;93.00;;;;;;5073595;28;20405;-73
2022/02/25 00:45:17;;;;;;;42.30;21.40;;;4.30;93.00;;;;;;5073234;28;19966;-75
2022/02/25 00:47:45;;;;;;;33.28;19.67;;;4.00;94.20;;;;;;5073388;28;20052;-71
2022/02/25 00:50:12;;;;;;;39.35;19.42;;;4.00;95.00;;;;;;5078570;28;20354;-73
2022/02/25 00:52:39;;;;;;;32.88;18.27;;;4.30;94.40;;;;;;5090983;28;20036;-75
2022/02/25 00:55:07;;;;;;;32.83;17.35;;;4.30;93.80;;;;;;5092749;28;20039;-73
2022/02/25 00:57:35;;;;;;;25.55;16.13;;;3.80;94.90;;;;;;5087411;28;20040;-73
2022/02/25 01:00:03;;;;;;;32.22;16.65;;;3.90;95.30;;;;;;5085907;28;20428;-71
2022/02/25 01:02:31;;;;;;;30.42;16.95;;;3.60;96.30;;;;;;5081087;28;20070;-73
2022/02/25 01:05:00;;;;;;;31.65;17.80;;;3.90;96.50;;;;;;5083238;28;20296;-72
2022/02/25 01:07:28;;;;;;;30.55;17.45;;;4.10;95.60;;;;;;5093206;28;20059;-73
2022/02/25 01:09:58;;;;;;;26.33;16.50;;;4.10;95.40;;;;;;5091679;28;20068;-72
2022/02/25 01:12:25;;;;;;;24.77;16.67;;;4.20;95.10;;;;;;5092944;28;20128;-73
2022/02/25 01:14:52;;;;;;;26.08;15.25;;;4.00;94.60;;;;;;5074677;28;20048;-71
2022/02/25 01:17:19;;;;;;;26.63;15.90;;;3.90;95.10;;;;;;5092778;28;20493;-73
2022/02/25 01:19:46;;;;;;;28.38;16.40;;;4.10;94.50;;;;;;5092270;28;20036;-72
2022/02/25 01:22:14;;;;;;;28.25;15.90;;;4.10;94.20;;;;;;5092310;28;20048;-72
2022/02/25 01:24:44;;;;;;;28.33;16.10;;;4.10;94.40;;;;;;5092345;28;20036;-73
2022/02/25 01:27:11;;;;;;;33.28;16.38;;;3.70;96.40;;;;;;5092802;28;20070;-72
2022/02/25 01:29:39;;;;;;;28.35;16.05;;;3.80;95.90;;;;;;5092426;28;20071;-73
2022/02/25 01:32:06;;;;;;;29.88;15.05;;;3.90;95.80;;;;;;5092482;28;20047;-72
2022/02/25 01:34:34;;;;;;;27.15;16.27;;;3.90;95.10;;;;;;5092089;28;20392;-74
2022/02/25 01:37:01;;;;;;;31.00;16.13;;;4.00;95.20;;;;;;5092405;28;20044;-72
2022/02/25 01:39:28;;;;;;;32.50;16.75;;;4.10;95.10;;;;;;5092061;28;20047;-73
2022/02/25 01:41:56;;;;;;;27.77;16.58;;;3.70;95.40;;;;;;5092341;28;20050;-73
2022/02/25 01:44:30;;;;;;;29.90;16.30;;;3.70;96.90;;;;;;5091686;28;20040;-72
2022/02/25 01:46:59;;;;;;;27.48;15.63;;;3.70;96.80;;;;;;5092279;28;20047;-73
2022/02/25 01:49:28;;;;;;;27.15;14.85;;;3.60;96.50;;;;;;5091291;28;20075;-73
2022/02/25 01:52:00;;;;;;;24.92;14.95;;;3.70;96.90;;;;;;5091223;28;20042;-75
2022/02/25 01:54:28;;;;;;;26.10;15.65;;;3.80;97.10;;;;;;5090869;28;20110;-72
2022/02/25 01:57:00;;;;;;;28.52;15.63;;;3.50;97.80;;;;;;5091369;28;20044;-73
2022/02/25 01:59:29;;;;;;;24.02;14.35;;;3.60;98.00;;;;;;5091100;28;20044;-72
2022/02/25 02:01:57;;;;;;;32.83;15.45;;;3.70;97.80;;;;;;5091282;28;20060;-73
2022/02/25 02:04:25;;;;;;;30.13;16.45;;;3.30;98.60;;;;;;5090337;28;20116;-72
2022/02/25 02:06:53;;;;;;;29.35;14.93;;;3.00;99.90;;;;;;5090533;28;20046;-71
2022/02/25 02:09:20;;;;;;;27.08;13.75;;;3.20;99.90;;;;;;5090690;28;20044;-73
2022/02/25 02:11:50;;;;;;;19.20;12.65;;;3.50;99.00;;;;;;5090786;28;20036;-73
2022/02/25 02:14:20;;;;;;;21.80;13.57;;;3.30;98.70;;;;;;5088902;28;20047;-73
2022/02/25 02:16:48;;;;;;;;;;;3.30;98.90;;;;;;5090843;28;20071;-72
2022/02/25 02:19:17;;;;;;;21.42;12.85;;;3.30;98.50;;;;;;5090509;28;20075;-70
2022/02/25 02:21:55;;;;;;;21.30;13.70;;;3.20;99.60;;;;;;5091131;28;20638;-73
2022/02/25 02:24:24;;;;;;;22.17;14.18;;;3.20;99.60;;;;;;5090394;28;20379;-70
2022/02/25 02:26:53;;;;;;;23.13;13.98;;;3.20;99.30;;;;;;5090737;28;20040;-73
2022/02/25 02:29:21;;;;;;;28.02;15.32;;;3.10;99.40;;;;;;5090736;28;20405;-70
2022/02/25 02:31:48;;;;;;;27.05;14.48;;;3.00;99.90;;;;;;5090783;28;20040;-70
2022/02/25 02:34:17;;;;;;;26.42;14.77;;;3.10;99.90;;;;;;5090998;28;20044;-70
2022/02/25 02:36:45;;;;;;;23.00;15.05;;;3.00;99.60;;;;;;5091894;28;20405;-70
2022/02/25 02:39:13;;;;;;;21.33;14.27;;;2.90;99.90;;;;;;5091197;28;20040;-72
2022/02/25 02:41:40;;;;;;;25.20;13.98;;;2.90;99.90;;;;;;5090931;28;20056;-72
2022/02/25 02:44:08;;;;;;;21.23;14.07;;;2.90;99.90;;;;;;5090903;28;20036;-72
2022/02/25 02:46:36;;;;;;;26.10;14.70;;;2.70;99.90;;;;;;5091104;28;20115;-72
2022/02/25 02:49:04;;;;;;;30.80;13.77;;;2.50;99.90;;;;;;5090257;28;20047;-72
2022/02/25 02:51:32;;;;;;;27.67;15.55;;;2.80;99.90;;;;;;5090437;28;20191;-72
2022/02/25 02:53:59;;;;;;;25.05;14.27;;;2.80;99.90;;;;;;5090345;28;20401;-72
2022/02/25 02:56:26;;;;;;;21.60;13.98;;;2.90;99.90;;;;;;5090300;28;20044;-73
2022/02/25 02:58:55;;;;;;;22.75;14.35;;;2.90;99.90;;;;;;5091075;28;20048;-71
2022/02/25 03:01:25;;;;;;;19.52;13.63;;;2.80;99.90;;;;;;5090790;28;20080;-71
2022/02/25 03:03:53;;;;;;;21.42;14.27;;;2.70;99.90;;;;;;5073328;28;20117;-71
2022/02/25 03:06:21;;;;;;;19.75;13.43;;;2.80;99.90;;;;;;5091103;28;20048;-72
2022/02/25 03:08:49;;;;;;;24.13;13.93;;;2.70;99.90;;;;;;5091088;28;20044;-71
2022/02/25 03:11:16;;;;;;;25.23;13.55;;;2.40;99.90;;;;;;5090103;28;20051;-72
2022/02/25 03:13:43;;;;;;;27.27;15.48;;;2.50;99.90;;;;;;5091166;28;20397;-71
2022/02/25 03:16:10;;;;;;;26.30;15.57;;;2.70;99.90;;;;;;5090817;28;20392;-72
2022/02/25 03:18:38;;;;;;;24.48;13.50;;;2.80;99.90;;;;;;5094432;28;20043;-73
2022/02/25 03:21:07;;;;;;;20.25;13.57;;;2.70;99.90;;;;;;5094208;28;20055;-72
2022/02/25 03:23:34;;;;;;;22.23;13.60;;;2.60;99.90;;;;;;5093792;28;20054;-72
2022/02/25 03:26:01;;;;;;;21.92;13.63;;;2.80;99.90;;;;;;5094522;28;20044;-74
2022/02/25 03:28:29;;;;;;;21.65;12.63;;;2.80;99.90;;;;;;5094820;28;20036;-71
2022/02/25 03:30:57;;;;;;;23.30;13.40;;;2.70;99.90;;;;;;5094770;28;20048;-73
2022/02/25 03:33:25;;;;;;;21.20;13.45;;;2.70;99.90;;;;;;5076551;28;20044;-72
2022/02/25 03:35:52;;;;;;;21.27;13.65;;;2.80;99.90;;;;;;5094625;28;20044;-71
2022/02/25 03:38:19;;;;;;;23.27;14.13;;;3.00;99.90;;;;;;5094681;28;20046;-73
2022/02/25 03:40:47;;;;;;;22.77;14.93;;;3.10;99.90;;;;;;5075467;28;20048;-73
2022/02/25 03:43:14;;;;;;;20.38;12.73;;;2.60;99.90;;;;;;5094681;28;20042;-72
2022/02/25 03:45:41;;;;;;;21.77;12.30;;;2.60;99.90;;;;;;5076696;28;20044;-72
2022/02/25 03:48:08;;;;;;;23.23;13.23;;;2.70;99.90;;;;;;5094231;28;20071;-72
2022/02/25 03:50:38;;;;;;;21.83;13.60;;;2.60;99.90;;;;;;5093698;28;20667;-73
2022/02/25 03:53:05;;;;;;;20.10;12.55;;;2.80;99.90;;;;;;5093527;28;20047;-73
2022/02/25 03:55:32;;;;;;;18.10;11.75;;;2.70;99.90;;;;;;5093174;28;20422;-73
2022/02/25 03:57:59;;;;;;;20.20;13.23;;;2.80;99.90;;;;;;5093623;28;20050;-72
2022/02/25 04:00:27;;;;;;;20.58;12.73;;;2.90;99.90;;;;;;5094089;28;20574;-74
2022/02/25 04:02:57;;;;;;;23.65;13.02;;;2.80;99.90;;;;;;5094177;28;20035;-74
2022/02/25 04:05:25;;;;;;;19.53;12.90;;;2.60;99.90;;;;;;5094653;28;20040;-73
2022/02/25 04:07:53;;;;;;;19.17;13.05;;;2.80;99.90;;;;;;5093782;28;20048;-73
2022/02/25 04:10:21;;;;;;;20.95;12.50;;;2.80;99.90;;;;;;5093934;28;20072;-72
2022/02/25 04:12:49;;;;;;;20.65;13.77;;;2.70;99.90;;;;;;5094358;28;20054;-72
2022/02/25 04:15:19;;;;;;;19.40;12.47;;;2.80;99.90;;;;;;5075281;28;20138;-74
2022/02/25 04:17:47;;;;;;;23.63;12.40;;;3.00;99.90;;;;;;5094036;28;20562;-72
2022/02/25 04:20:14;;;;;;;28.52;13.27;;;2.80;99.90;;;;;;5093988;28;20385;-73
2022/02/25 04:22:42;;;;;;;17.30;11.93;;;2.70;99.90;;;;;;5093638;28;20382;-72
2022/02/25 04:25:10;;;;;;;21.52;12.98;;;2.40;99.90;;;;;;5093979;28;20050;-72
2022/02/25 04:27:38;;;;;;;26.88;14.70;;;2.50;99.90;;;;;;5093254;28;20037;-71
2022/02/25 04:30:06;;;;;;;23.98;14.80;;;2.40;99.90;;;;;;5093371;28;20044;-72
2022/02/25 04:32:33;;;;;;;23.58;14.68;;;2.20;99.90;;;;;;5094104;28;20036;-72
2022/02/25 04:35:01;;;;;;;24.90;14.68;;;2.40;99.90;;;;;;5093796;28;20050;-72
2022/02/25 04:37:29;;;;;;;28.95;15.13;;;2.40;99.90;;;;;;5092943;28;20034;-73
2022/02/25 04:39:56;;;;;;;24.35;14.40;;;2.40;99.90;;;;;;5093233;28;20048;-71
2022/02/25 04:42:26;;;;;;;27.10;15.23;;;2.40;99.90;;;;;;5071943;28;20045;-71
2022/02/25 04:44:53;;;;;;;22.40;13.35;;;2.60;99.90;;;;;;5062129;28;20529;-72
2022/02/25 04:47:21;;;;;;;18.58;12.18;;;2.40;99.90;;;;;;5093404;28;20044;-73
2022/02/25 04:49:48;;;;;;;19.23;12.27;;;2.40;99.90;;;;;;5092903;28;20489;-73
2022/02/25 04:52:17;;;;;;;20.10;12.25;;;2.10;99.90;;;;;;5092223;28;20048;-71
2022/02/25 04:54:46;;;;;;;16.92;11.43;;;2.20;99.90;;;;;;5092543;28;20071;-76
2022/02/25 04:57:13;;;;;;;17.48;12.25;;;2.20;99.90;;;;;;5092483;28;20405;-77
2022/02/25 04:59:40;;;;;;;22.98;13.88;;;2.40;99.90;;;;;;5092514;28;20036;-77
2022/02/25 05:02:08;;;;;;;20.60;12.82;;;2.30;99.90;;;;;;5092813;28;20405;-76
2022/02/25 05:04:35;;;;;;;23.23;12.98;;;1.90;99.90;;;;;;5093347;28;20382;-76
2022/02/25 05:07:04;;;;;;;18.27;12.43;;;1.90;99.90;;;;;;5092846;28;20050;-73
2022/02/25 05:09:31;;;;;;;18.55;13.07;;;2.00;99.90;;;;;;5092995;28;20039;-71
2022/02/25 05:11:58;;;;;;;22.67;13.73;;;2.30;99.90;;;;;;5090939;28;20044;-71
2022/02/25 05:20:15;;;;;;;23.33;14.43;;;2.20;99.90;;;;;;5092185;28;20032;-71
2022/02/25 05:22:45;;;;;;;20.80;13.10;;;2.30;99.90;;;;;;5092510;28;20500;-73
2022/02/25 05:25:12;;;;;;;19.40;11.98;;;2.30;99.90;;;;;;5092690;28;20038;-71
2022/02/25 05:27:39;;;;;;;18.08;11.40;;;2.40;99.90;;;;;;5092712;28;20653;-73
2022/02/25 05:30:12;;;;;;;18.77;12.05;;;2.00;99.90;;;;;;5092053;28;20059;-71
2022/02/25 05:32:40;;;;;;;18.17;11.23;;;2.00;99.90;;;;;;5091932;28;20043;-71
2022/02/25 05:35:08;;;;;;;20.35;12.05;;;1.60;99.90;;;;;;5092823;28;20044;-72
2022/02/25 05:37:40;;;;;;;72.82;42.38;;;1.70;99.90;;;;;;5092039;28;20044;-71
2022/02/25 05:40:09;;;;;;;214.32;96.05;;;2.00;99.90;;;;;;5091401;28;20400;-71
2022/02/25 05:42:38;;;;;;;129.02;53.92;;;2.10;99.90;;;;;;5091706;28;20079;-72
2022/02/25 05:45:07;;;;;;;74.10;38.38;;;2.10;99.90;;;;;;5092256;28;20036;-71
2022/02/25 05:47:36;;;;;;;36.97;21.55;;;1.90;99.90;;;;;;5092285;28;20396;-72
2022/02/25 05:50:09;;;;;;;37.08;21.48;;;1.80;99.90;;;;;;5091934;28;20044;-71
2022/02/25 05:52:37;;;;;;;24.65;14.00;;;1.80;99.90;;;;;;5091022;28;20090;-72
2022/02/25 05:55:05;;;;;;;26.52;14.95;;;1.80;99.90;;;;;;5091125;28;20032;-72
2022/02/25 05:57:33;;;;;;;24.30;14.65;;;1.70;99.90;;;;;;5091082;28;20051;-73
2022/02/25 06:00:00;;;;;;;32.88;16.88;;;2.00;99.90;;;;;;5091170;28;20039;-74
2022/02/25 06:02:29;;;;;;;23.60;13.95;;;2.30;99.90;;;;;;5091177;28;20056;-73
2022/02/25 06:04:56;;;;;;;20.48;12.88;;;2.40;99.90;;;;;;5091906;28;20463;-73
2022/02/25 06:07:23;;;;;;;15.88;11.07;;;2.60;99.90;;;;;;5091547;28;20036;-74
2022/02/25 06:09:51;;;;;;;23.65;12.85;;;2.40;99.90;;;;;;5091690;28;20044;-73
2022/02/25 06:12:19;;;;;;;17.90;11.73;;;2.50;99.90;;;;;;5091325;28;20067;-75
2022/02/25 06:14:46;;;;;;;19.60;12.52;;;2.60;99.90;;;;;;5073451;28;20493;-73
2022/02/25 06:17:14;;;;;;;18.10;11.18;;;2.60;99.90;;;;;;5091540;28;20036;-76
2022/02/25 06:19:41;;;;;;;20.85;11.48;;;2.30;99.90;;;;;;5091489;28;20047;-75
2022/02/25 06:22:08;;;;;;;21.23;11.95;;;2.40;99.90;;;;;;5091075;28;20044;-74
2022/02/25 06:24:36;;;;;;;20.30;12.05;;;2.40;99.90;;;;;;5084398;28;20032;-72
2022/02/25 06:27:03;;;;;;;15.95;10.88;;;2.50;99.90;;;;;;5081189;28;20044;-73
2022/02/25 06:29:30;;;;;;;23.80;12.93;;;2.40;99.90;;;;;;5079157;28;20362;-72
2022/02/25 06:31:58;;;;;;;22.15;12.43;;;2.50;99.90;;;;;;5080311;28;20059;-74
2022/02/25 06:34:25;;;;;;;23.42;13.25;;;2.60;99.90;;;;;;5080866;28;20041;-74
2022/02/25 06:36:52;;;;;;;19.55;12.30;;;2.70;99.90;;;;;;5079203;28;20486;-74
2022/02/25 06:39:19;;;;;;;22.25;12.38;;;2.60;99.90;;;;;;5080624;28;20040;-76
2022/02/25 06:41:47;;;;;;;23.00;12.50;;;2.60;99.90;;;;;;5081432;28;20045;-75
2022/02/25 06:44:16;;;;;;;22.25;12.93;;;2.70;99.90;;;;;;5079387;28;20499;-72
2022/02/25 06:46:43;;;;;;;20.70;13.20;;;2.70;99.90;;;;;;5080517;28;20113;-73
2022/02/25 06:49:11;;;;;;;25.88;13.07;;;2.90;99.90;;;;;;5081331;28;20548;-74
2022/02/25 06:51:38;;;;;;;25.67;14.20;;;3.10;99.90;;;;;;5078074;28;20039;-74
2022/02/25 06:54:05;;;;;;;33.75;14.18;;;3.20;99.90;;;;;;5070474;28;20119;-74
2022/02/25 06:56:33;;;;;;;22.27;14.25;;;3.00;99.90;;;;;;5069922;28;20037;-76
2022/02/25 06:59:01;;;;;;;22.88;14.45;;;2.70;99.90;;;;;;5070005;28;20420;-75
2022/02/25 07:01:28;;;;;;;24.73;14.32;;;2.90;99.90;;;;;;5079349;28;20413;-75
2022/02/25 07:03:56;;;;;;;29.33;14.30;;;3.20;99.90;;;;;;5090318;28;20043;-75
2022/02/25 07:06:24;;;;;;;23.50;14.07;;;3.30;99.90;;;;;;5089470;28;20382;-69
2022/02/25 07:08:51;;;;;;;23.50;13.93;;;3.40;99.90;;;;;;5062193;28;20055;-73
2022/02/25 07:11:20;;;;;;;29.13;14.75;;;3.60;99.90;;;;;;5087210;28;20497;-74
2022/02/25 07:13:48;;;;;;;28.55;17.05;;;3.60;99.80;;;;;;5090522;28;20036;-75
2022/02/25 07:16:15;;;;;;;38.08;22.13;;;4.20;99.90;;;;;;5090812;28;20040;-72
2022/02/25 07:18:43;;;;;;;30.45;17.40;;;4.90;99.90;;;;;;5090778;28;20044;-75
2022/02/25 07:21:12;;;;;;;21.15;13.55;;;4.30;99.20;;;;;;5089355;28;20050;-79
2022/02/25 07:23:40;;;;;;;23.13;15.02;;;3.60;99.90;;;;;;5089779;28;20052;-74
2022/02/25 07:26:08;;;;;;;28.48;16.60;;;3.50;99.90;;;;;;5090745;28;20044;-73
2022/02/25 07:28:35;;;;;;;30.25;17.88;;;3.20;99.90;;;;;;5073068;28;20040;-72
2022/02/25 07:31:04;;;;;;;24.92;14.88;;;3.40;99.90;;;;;;5071579;28;20044;-72
2022/02/25 07:33:31;;;;;;;25.58;15.80;;;3.30;99.90;;;;;;5072537;28;20079;-74
2022/02/25 07:35:59;;;;;;;25.00;15.43;;;3.20;99.90;;;;;;5056010;28;20048;-73
2022/02/25 07:38:27;;;;;;;23.95;15.15;;;3.20;99.90;;;;;;5090274;28;20040;-73
2022/02/25 07:40:54;;;;;;;26.92;14.65;;;3.30;99.90;;;;;;5090659;28;20040;-75
2022/02/25 07:43:22;;;;;;;31.55;14.95;;;3.20;99.90;;;;;;5090630;28;20047;-72
2022/02/25 07:45:51;;;;;;;26.08;15.07;;;3.40;99.90;;;;;;5072358;28;20429;-74
2022/02/25 07:48:19;;;;;;;28.73;14.38;;;3.30;99.90;;;;;;5090864;28;20085;-73
2022/02/25 07:50:48;;;;;;;22.00;14.68;;;3.40;99.90;;;;;;5072832;28;20052;-72
2022/02/25 07:53:16;;;;;;;24.58;14.70;;;3.70;99.90;;;;;;5074176;28;20053;-72
2022/02/25 07:55:45;;;;;;;21.75;15.30;;;3.90;99.90;;;;;;5070500;28;20402;-73
2022/02/25 07:58:13;;;;;;;26.80;14.93;;;4.10;99.90;;;;;;5052461;28;20064;-72
2022/02/25 08:00:41;;;;;;;26.05;15.52;;;4.20;99.90;;;;;;5069751;28;20044;-72
2022/02/25 08:03:09;;;;;;;23.63;14.77;;;4.20;99.90;;;;;;5071310;28;20048;-73
2022/02/25 08:05:37;;;;;;;24.60;14.38;;;4.50;99.70;;;;;;5087640;28;20073;-72
2022/02/25 08:08:07;;;;;;;24.33;14.48;;;4.60;99.50;;;;;;5093997;28;20400;-72
2022/02/25 08:10:35;;;;;;;25.52;14.35;;;4.90;98.90;;;;;;5093937;28;20047;-73
2022/02/25 08:13:05;;;;;;;26.30;14.60;;;4.90;99.00;;;;;;5093711;28;20123;-71
2022/02/25 08:15:35;;;;;;;27.90;14.27;;;4.90;98.80;;;;;;5091986;28;20512;-72
2022/02/25 08:18:04;;;;;;;;;;;5.00;98.30;;;;;;5091217;28;20040;-75
2022/02/25 08:20:32;;;;;;;21.65;13.93;;;5.10;97.60;;;;;;5094200;28;19943;-78
2022/02/25 08:23:01;;;;;;;27.40;14.68;;;5.10;97.00;;;;;;5092951;28;20408;-73
2022/02/25 08:25:29;;;;;;;22.27;12.63;;;5.00;97.20;;;;;;5091095;28;20032;-74
2022/02/25 08:27:57;;;;;;;20.73;13.25;;;5.10;96.40;;;;;;5093675;28;20044;-72
2022/02/25 08:30:24;;;;;;;37.45;21.67;;;5.00;95.90;;;;;;5093608;28;20119;-72
2022/02/25 08:32:53;;;;;;;66.32;38.80;;;5.80;99.90;;;;;;5093518;28;20048;-74
2022/02/25 08:35:20;;;;;;;33.25;20.88;;;6.30;96.90;;;;;;5093010;28;20472;-71
2022/02/25 08:37:48;;;;;;;24.40;13.48;;;6.40;93.30;;;;;;5093509;28;20085;-74
2022/02/25 08:40:16;;;;;;;21.73;13.60;;;6.10;92.50;;;;;;5093461;28;20047;-72
2022/02/25 08:42:44;;;;;;;24.27;12.82;;;5.90;92.70;;;;;;5093187;28;20043;-74
2022/02/25 08:45:13;;;;;;;20.52;13.15;;;6.10;93.00;;;;;;5092942;28;20050;-74
2022/02/25 08:47:42;;;;;;;20.00;13.18;;;6.40;92.20;;;;;;5093604;28;20036;-74
2022/02/25 08:50:12;;;;;;;18.85;12.48;;;6.00;91.90;;;;;;5093484;28;20404;-72
2022/02/25 08:52:40;;;;;;;22.17;12.30;;;5.90;92.00;;;;;;5092876;28;20044;-72
2022/02/25 08:55:08;;;;;;;16.98;12.27;;;6.50;92.10;;;;;;5093178;28;20054;-72
2022/02/25 08:57:39;;;;;;;20.98;12.60;;;6.80;87.70;;;;;;5093187;28;20040;-71
2022/02/25 09:00:09;;;;;;;22.70;12.48;;;6.80;86.50;;;;;;5093162;28;20040;-75
2022/02/25 09:02:36;;;;;;;20.23;12.77;;;7.30;83.80;;;;;;5092830;28;20428;-74
2022/02/25 09:05:06;;;;;;;18.98;11.95;;;7.30;81.50;;;;;;5085632;28;20135;-71
2022/02/25 09:07:33;;;;;;;18.98;11.77;;;7.10;80.60;;;;;;5087420;28;20036;-72
2022/02/25 09:10:01;;;;;;;18.98;10.20;;;7.40;79.80;;;;;;5088165;28;20113;-73
2022/02/25 09:12:32;;;;;;;19.33;10.98;;;7.70;78.80;;;;;;5086820;28;20046;-72
2022/02/25 09:15:00;;;;;;;18.10;12.05;;;8.00;77.50;;;;;;5071968;28;20067;-74
2022/02/25 09:17:27;;;;;;;14.90;10.45;;;7.70;76.30;;;;;;5089098;28;20051;-72
2022/02/25 09:19:55;;;;;;;17.92;10.10;;;7.80;75.50;;;;;;5083456;28;20043;-72
2022/02/25 09:22:22;;;;;;;17.60;10.82;;;7.60;73.70;;;;;;5089369;28;20047;-73
2022/02/25 09:24:49;;;;;;;16.77;10.60;;;7.60;74.90;;;;;;5080085;28;20040;-72
2022/02/25 09:27:17;;;;;;;20.02;10.77;;;7.60;73.60;;;;;;5082480;28;20040;-76
2022/02/25 09:29:47;;;;;;;21.48;10.65;;;7.70;74.00;;;;;;5081700;28;20468;-73
2022/02/25 09:32:14;;;;;;;15.35;10.70;;;7.80;73.20;;;;;;5079321;28;20402;-72
2022/02/25 09:34:42;;;;;;;15.32;10.43;;;8.00;72.90;;;;;;5087610;28;20480;-75
2022/02/25 09:37:09;;;;;;;17.73;10.32;;;8.50;72.90;;;;;;5081530;28;20516;-73
2022/02/25 09:39:36;;;;;;;18.30;10.43;;;8.50;70.10;;;;;;5085793;28;20039;-73
2022/02/25 09:42:05;;;;;;;14.07;9.68;;;8.60;70.30;;;;;;5073450;28;20064;-73
2022/02/25 09:44:34;;;;;;;17.63;9.15;;;8.70;70.50;;;;;;5090952;28;20050;-74
2022/02/25 09:47:02;;;;;;;13.25;9.90;;;8.90;67.70;;;;;;5084675;28;20040;-73
2022/02/25 09:49:29;;;;;;;11.15;8.55;;;9.00;66.20;;;;;;5081673;28;20075;-74
2022/02/25 09:51:58;;;;;;;15.32;8.38;;;8.60;66.70;;;;;;5080981;28;20035;-74
2022/02/25 09:54:25;;;;;;;13.13;8.77;;;8.70;66.10;;;;;;5065300;28;20043;-72
2022/02/25 09:56:54;;;;;;;14.20;9.10;;;9.10;64.90;;;;;;5085482;28;20489;-72
2022/02/25 09:59:22;;;;;;;16.88;9.15;;;9.20;64.90;;;;;;5071446;28;20043;-75
2022/02/25 10:01:49;;;;;;;13.60;8.77;;;9.30;64.50;;;;;;5081295;28;20405;-73
2022/02/25 10:04:22;;;;;;;13.85;8.80;;;9.70;64.50;;;;;;5081484;28;20420;-73
2022/02/25 10:06:50;;;;;;;16.90;9.75;;;9.70;64.20;;;;;;5085908;28;20040;-72
2022/02/25 10:09:39;;;;;;;17.95;9.20;;;9.90;62.70;;;;;;5064348;28;20040;-72
2022/02/25 10:12:12;;;;;;;14.55;9.35;;;9.80;61.70;;;;;;5084839;28;20430;-73
2022/02/25 10:14:48;;;;;;;16.08;8.70;;;9.70;61.60;;;;;;5081957;28;20039;-76
2022/02/25 10:17:24;;;;;;;11.50;7.70;;;9.70;60.40;;;;;;5079831;28;20131;-77
2022/02/25 10:19:53;;;;;;;12.23;7.75;;;9.80;60.60;;;;;;5089741;28;20032;-75
2022/02/25 10:22:26;;;;;;;12.85;7.88;;;10.20;59.30;;;;;;5091274;28;20494;-75
2022/02/25 10:25:06;;;;;;;12.75;7.18;;;10.40;58.20;;;;;;5082286;28;20477;-73
2022/02/25 10:27:39;;;;;;;10.05;6.32;;;10.40;59.00;;;;;;5064573;28;20043;-72
2022/02/25 10:30:19;;;;;;;12.38;6.25;;;10.50;58.80;;;;;;5085298;28;20035;-73
2022/02/25 10:32:50;;;;;;;9.23;6.43;;;10.90;58.40;;;;;;5078418;28;20048;-74
2022/02/25 10:35:30;;;;;;;13.52;7.85;;;11.20;57.30;;;;;;5080950;28;20036;-73
2022/02/25 10:38:00;;;;;;;10.93;7.28;;;11.50;58.50;;;;;;5061393;28;20048;-75
2022/02/25 10:40:32;;;;;;;12.35;8.20;;;11.60;56.90;;;;;;5079956;28;20032;-74
2022/02/25 10:43:00;;;;;;;42.13;25.52;;;11.50;58.70;;;;;;5081048;28;20606;-74
2022/02/25 10:45:33;;;;;;;35.75;23.15;;;11.70;59.40;;;;;;5079702;28;20032;-74
2022/02/25 10:48:07;;;;;;;20.38;12.15;;;11.90;59.70;;;;;;5080659;28;20049;-72
2022/02/25 10:51:14;;;;;;;9.77;6.40;;;12.10;55.90;;;;;;5087945;28;20032;-73
2022/02/25 10:53:52;;;;;;;9.80;5.68;;;12.00;55.10;;;;;;5087323;28;20142;-71
2022/02/25 10:56:21;;;;;;;9.63;5.85;;;12.30;53.30;;;;;;5084569;28;20122;-71
2022/02/25 10:58:57;;;;;;;11.65;6.03;;;12.30;53.30;;;;;;5086356;28;20097;-73
2022/02/25 11:01:35;;;;;;;9.68;6.28;;;12.40;53.50;;;;;;5078545;28;20506;-72
2022/02/25 11:04:06;;;;;;;8.52;5.30;;;12.50;53.80;;;;;;5078913;28;20040;-75
2022/02/25 11:06:33;;;;;;;9.23;5.63;;;12.60;53.20;;;;;;5086693;28;20393;-76
2022/02/25 11:09:04;;;;;;;9.02;5.40;;;12.40;52.10;;;;;;5090134;28;20044;-76
2022/02/25 11:11:35;;;;;;;9.43;5.15;;;12.20;52.20;;;;;;5091208;28;20044;-76
2022/02/25 11:14:05;;;;;;;8.15;5.10;;;12.60;51.30;;;;;;5088803;28;20050;-76
2022/02/25 11:16:34;;;;;;;10.70;5.00;;;12.80;51.20;;;;;;5086662;28;20044;-75
2022/02/25 11:19:24;;;;;;;7.50;5.13;;;13.00;51.20;;;;;;5087663;28;20044;-73
2022/02/25 11:21:53;;;;;;;7.30;4.50;;;13.10;51.20;;;;;;5085873;28;20442;-74
2022/02/25 11:24:21;;;;;;;8.68;4.53;;;13.10;49.60;;;;;;5079932;28;20035;-73
2022/02/25 11:26:59;;;;;;;8.17;4.60;;;13.60;49.60;;;;;;5080532;28;20047;-75
2022/02/25 11:29:30;;;;;;;11.05;4.32;;;13.60;49.20;;;;;;5080187;28;20032;-73
2022/02/25 11:32:01;;;;;;;7.28;4.63;;;13.90;49.00;;;;;;5077548;28;20051;-74
2022/02/25 11:34:28;;;;;;;10.73;4.88;;;14.00;48.40;;;;;;5069911;28;20355;-74
2022/02/25 11:36:55;;;;;;;6.53;4.38;;;13.40;49.00;;;;;;5075301;28;20051;-72
2022/02/25 11:39:28;;;;;;;7.60;4.18;;;13.80;49.20;;;;;;5093623;28;20048;-74
2022/02/25 11:41:58;;;;;;;6.75;4.18;;;14.00;47.10;;;;;;5094597;28;20063;-72
2022/02/25 11:44:26;;;;;;;12.18;4.32;;;13.90;47.60;;;;;;5094187;28;20047;-73
2022/02/25 11:46:55;;;;;;;6.90;4.15;;;14.10;47.50;;;;;;5093443;28;20046;-70
2022/02/25 11:49:26;;;;;;;7.97;4.47;;;14.20;47.10;;;;;;5093479;28;20066;-74
2022/02/25 11:51:54;;;;;;;8.60;4.55;;;14.60;47.10;;;;;;5093666;28;20046;-73
2022/02/25 11:54:21;;;;;;;7.50;4.60;;;14.70;47.10;;;;;;5093278;28;20052;-73
2022/02/25 11:56:57;;;;;;;6.95;4.07;;;14.90;46.30;;;;;;5093019;28;20039;-73
2022/02/25 11:59:30;;;;;;;8.38;4.82;;;14.90;47.10;;;;;;5092515;28;20523;-75
2022/02/25 12:02:01;;;;;;;8.27;4.70;;;15.40;47.40;;;;;;5093816;28;20140;-75
2022/02/25 12:04:32;;;;;;;7.80;4.10;;;15.60;46.00;;;;;;5093988;28;20051;-74
2022/02/25 12:07:05;;;;;;;10.57;4.28;;;15.40;45.20;;;;;;5080836;28;20044;-72
2022/02/25 12:09:55;;;;;;;8.82;4.30;;;15.90;46.20;;;;;;5093794;28;20040;-73
2022/02/25 12:12:28;;;;;;;7.13;3.92;;;15.40;45.30;;;;;;5093912;28;20082;-72
2022/02/25 12:15:08;;;;;;;8.45;4.43;;;15.60;45.40;;;;;;5093821;28;20032;-74
2022/02/25 12:17:57;;;;;;;8.25;4.00;;;15.80;44.70;;;;;;5093433;28;20063;-72
2022/02/25 12:20:25;;;;;;;5.93;3.97;;;16.10;44.50;;;;;;5093906;28;20050;-75
2022/02/25 12:23:02;;;;;;;11.73;5.32;;;16.70;43.90;;;;;;5093641;28;20032;-75
2022/02/25 12:25:42;;;;;;;9.38;4.68;;;17.20;45.10;;;;;;5093965;28;20067;-77
2022/02/25 12:28:34;;;;;;;9.32;4.63;;;16.30;43.40;;;;;;5093707;28;20111;-75
2022/02/25 12:31:07;;;;;;;12.30;5.10;;;16.90;43.90;;;;;;5075494;28;20052;-75
2022/02/25 12:33:44;;;;;;;7.60;4.05;;;17.50;43.50;;;;;;5093447;28;20115;-74
2022/02/25 12:36:29;;;;;;;10.32;4.60;;;17.20;42.90;;;;;;5093539;28;20050;-74
2022/02/25 12:39:13;;;;;;;10.10;4.63;;;17.80;42.20;;;;;;5055744;28;20068;-74
2022/02/25 12:41:46;;;;;;;7.65;4.20;;;18.30;41.00;;;;;;5073285;28;20404;-76
2022/02/25 12:44:23;;;;;;;8.40;4.15;;;18.50;40.10;;;;;;5072924;28;20044;-77
2022/02/25 12:46:52;;;;;;;9.88;4.80;;;17.50;41.80;;;;;;5073217;28;20045;-76
2022/02/25 12:49:23;;;;;;;8.23;4.83;;;18.50;41.60;;;;;;5072411;28;20055;-76
2022/02/25 12:51:55;;;;;;;8.30;4.53;;;18.50;41.20;;;;;;5058895;28;20289;-76
2022/02/25 12:54:25;;;;;;;8.60;4.75;;;18.50;40.20;;;;;;5092896;28;20058;-76
2022/02/25 12:56:55;;;;;;;10.35;5.05;;;18.50;40.20;;;;;;5075676;28;20128;-76